Time;durP1;ratioP1;P1;durP2;ratioP2;P2;SDS_P1;SDS_P2;PMS_P1;PMS_P2;Temp;Humidity;BMP_temperature;BMP_pressure;BME280_temperature;BME280_humidity;BME280_pressure;Samples;Min_cycle;Max_cycle;Signal;HPM_P1;HPM_P2
2023/05/26 00:01:40;;;;;;;6.25;5.85;;;;;;;15.47;91.59;95109.59;5074125;28;20204;-61
2023/05/26 00:04:07;;;;;;;7.63;6.28;;;;;;;15.44;91.68;95107.19;5072407;28;20289;-64
2023/05/26 00:06:33;;;;;;;6.13;5.70;;;;;;;15.44;91.59;95108.91;5073917;28;20288;-62
2023/05/26 00:09:01;;;;;;;6.60;6.20;;;;;;;15.57;91.17;95112.56;5072314;28;20301;-62
2023/05/26 00:11:28;;;;;;;6.72;6.25;;;;;;;15.55;90.97;95112.59;5074582;28;20296;-63
2023/05/26 00:13:56;;;;;;;7.35;6.72;;;;;;;15.45;91.54;95113.13;5074749;28;20702;-62
2023/05/26 00:16:23;;;;;;;6.97;6.25;;;;;;;15.34;92.14;95098.34;5073456;28;20225;-63
2023/05/26 00:18:49;;;;;;;7.00;6.50;;;;;;;15.26;92.04;95095.34;5073355;28;20308;-60
2023/05/26 00:21:16;;;;;;;7.13;6.22;;;;;;;15.37;92.08;95105.84;5073952;28;20970;-61
2023/05/26 00:23:43;;;;;;;7.22;6.68;;;;;;;15.36;92.19;95096.50;5070919;28;20237;-63
2023/05/26 00:26:09;;;;;;;7.28;6.57;;;;;;;15.27;92.67;95091.88;5070263;28;20296;-61
2023/05/26 00:28:36;;;;;;;8.85;7.47;;;;;;;15.27;92.89;95102.94;5071460;28;20297;-60
2023/05/26 00:31:04;;;;;;;8.20;7.38;;;;;;;15.17;93.28;95091.50;5075388;28;20782;-61
2023/05/26 00:33:31;;;;;;;7.00;6.40;;;;;;;15.16;93.29;95092.41;5073373;28;20225;-63
2023/05/26 00:35:57;;;;;;;8.18;6.40;;;;;;;15.19;92.83;95092.25;5071220;28;20320;-60
2023/05/26 00:38:24;;;;;;;8.50;7.55;;;;;;;15.22;92.88;95099.78;5071406;28;20293;-61
2023/05/26 00:40:51;;;;;;;7.63;7.03;;;;;;;15.15;92.97;95079.69;5071888;28;20627;-61
2023/05/26 00:43:18;;;;;;;7.07;6.38;;;;;;;15.08;93.55;95091.16;5072994;28;20710;-62
2023/05/26 00:45:44;;;;;;;7.18;6.63;;;;;;;15.04;93.88;95093.03;5073405;28;20265;-62
2023/05/26 00:48:12;;;;;;;6.30;5.90;;;;;;;15.01;93.78;95089.81;5072260;28;20292;-60
2023/05/26 00:50:39;;;;;;;6.00;5.57;;;;;;;15.03;93.92;95093.13;5070550;28;20819;-62
2023/05/26 00:53:06;;;;;;;6.57;5.97;;;;;;;15.07;93.34;95095.47;5071442;28;20296;-61
2023/05/26 00:55:33;;;;;;;6.47;5.88;;;;;;;15.06;93.20;95100.66;5072379;28;20298;-62
2023/05/26 00:58:00;;;;;;;6.20;5.70;;;;;;;15.01;93.32;95105.16;5071538;28;20307;-59
2023/05/26 01:00:27;;;;;;;6.35;5.95;;;;;;;14.87;93.57;95099.00;5069848;28;20744;-64
2023/05/26 01:02:57;;;;;;;12.40;6.93;;;;;;;14.97;93.49;95105.31;5069989;28;20297;-61
2023/05/26 01:05:25;;;;;;;6.90;6.40;;;;;;;14.91;93.26;95120.97;5071110;28;20208;-62
2023/05/26 01:07:52;;;;;;;7.05;6.45;;;;;;;14.98;93.10;95114.66;5071081;28;20296;-61
2023/05/26 01:10:19;;;;;;;6.13;5.72;;;;;;;14.98;92.51;95114.66;5072508;28;20205;-64
2023/05/26 01:12:54;;;;;;;6.88;5.88;;;;;;;15.03;92.45;95111.88;5070386;28;20292;-61
2023/05/26 01:15:26;;;;;;;5.97;5.47;;;;;;;15.05;92.01;95106.69;5072113;28;20204;-64
2023/05/26 01:18:02;;;;;;;6.18;5.57;;;;;;;15.01;92.27;95110.28;5071046;28;20700;-63
2023/05/26 01:20:37;;;;;;;6.32;5.80;;;;;;;15.06;92.14;95113.44;5070047;28;20737;-63
2023/05/26 01:23:20;;;;;;;6.05;5.63;;;;;;;14.93;92.44;95113.22;5071824;28;20200;-61
2023/05/26 01:26:04;;;;;;;5.13;4.82;;;;;;;14.83;92.61;95110.31;5070574;28;20312;-62
2023/05/26 01:28:35;;;;;;;4.95;4.65;;;;;;;14.70;93.35;95103.28;5071430;28;20678;-61
2023/05/26 01:31:03;;;;;;;5.97;5.10;;;;;;;14.82;92.81;95116.31;5068749;28;20289;-62
2023/05/26 01:33:29;;;;;;;6.35;5.05;;;;;;;14.83;92.66;95107.75;5068462;28;20289;-62
2023/05/26 01:35:56;;;;;;;5.60;4.95;;;;;;;14.76;92.42;95108.94;5071725;28;20229;-62
2023/05/26 01:38:23;;;;;;;5.05;4.43;;;;;;;14.69;92.47;95109.31;5068980;28;20301;-62
2023/05/26 01:41:05;;;;;;;5.40;5.00;;;;;;;14.64;92.42;95112.09;5071588;28;20727;-63
2023/05/26 01:43:42;;;;;;;5.53;5.03;;;;;;;14.61;92.29;95112.22;5070713;28;20310;-62
2023/05/26 01:46:21;;;;;;;6.70;4.28;;;;;;;14.66;91.75;95112.84;5072086;28;20319;-61
2023/05/26 01:48:49;;;;;;;4.93;4.53;;;;;;;14.56;91.97;95120.16;5070598;28;20291;-62
2023/05/26 01:51:20;;;;;;;4.55;4.28;;;;;;;14.63;91.50;95120.66;5070219;28;20340;-61
2023/05/26 01:53:52;;;;;;;5.10;4.70;;;;;;;14.69;91.25;95115.25;5071268;28;20284;-63
2023/05/26 01:56:20;;;;;;;5.20;4.75;;;;;;;14.65;90.92;95113.75;5069470;28;20399;-62
2023/05/26 01:58:51;;;;;;;5.47;5.07;;;;;;;14.57;91.35;95115.84;5073195;28;20784;-62
2023/05/26 02:01:17;;;;;;;5.43;5.03;;;;;;;14.55;91.59;95115.09;5068735;28;20293;-59
2023/05/26 02:03:44;;;;;;;4.20;4.00;;;;;;;14.61;90.93;95112.22;5069846;28;20790;-60
2023/05/26 02:06:11;;;;;;;4.70;4.40;;;;;;;14.59;91.27;95114.06;5069909;28;20813;-60
2023/05/26 02:08:37;;;;;;;4.47;4.18;;;;;;;14.57;91.30;95110.75;5071889;28;20210;-62
2023/05/26 02:11:04;;;;;;;6.55;4.55;;;;;;;14.58;90.92;95114.97;5068670;28;20245;-60
2023/05/26 02:13:31;;;;;;;5.10;4.70;;;;;;;14.57;90.61;95120.97;5069842;28;20229;-63
2023/05/26 02:15:59;;;;;;;5.10;4.25;;;;;;;14.46;90.66;95120.66;5071980;28;20665;-62
2023/05/26 02:18:26;;;;;;;5.22;4.80;;;;;;;14.45;90.65;95113.88;5072967;28;21556;-61
2023/05/26 02:20:53;;;;;;;4.93;4.57;;;;;;;14.40;90.82;95113.22;5074313;28;20292;-62
2023/05/26 02:23:20;;;;;;;6.05;4.82;;;;;;;14.50;90.08;95119.59;5074935;28;20665;-62
2023/05/26 02:25:46;;;;;;;6.32;3.92;;;;;;;14.44;89.98;95113.06;5073702;28;20319;-62
2023/05/26 02:28:13;;;;;;;4.18;3.88;;;;;;;14.24;91.10;95113.97;5073035;28;20284;-60
2023/05/26 02:30:40;;;;;;;4.70;4.30;;;;;;;14.13;91.48;95116.19;5074488;28;20296;-62
2023/05/26 02:33:08;;;;;;;6.00;4.47;;;;;;;14.14;91.65;95115.28;5074601;28;20288;-62
2023/05/26 02:35:34;;;;;;;4.93;4.50;;;;;;;14.22;91.43;95120.03;5045467;28;20282;-62
2023/05/26 02:38:01;;;;;;;7.20;4.28;;;;;;;14.18;91.72;95111.69;5056542;28;20359;-64
2023/05/26 02:40:28;;;;;;;6.60;4.15;;;;;;;14.24;91.22;95116.53;5072637;28;20226;-61
2023/05/26 02:42:54;;;;;;;4.20;4.00;;;;;;;14.26;91.02;95111.34;5071313;28;20295;-63
2023/05/26 02:45:22;;;;;;;4.82;4.43;;;;;;;14.16;91.19;95110.94;5070384;28;20710;-64
2023/05/26 02:47:49;;;;;;;4.50;4.20;;;;;;;14.15;91.45;95114.38;5070500;28;20214;-66
2023/05/26 02:50:18;;;;;;;5.60;5.13;;;;;;;14.28;91.18;95119.75;5070032;28;20248;-64
2023/05/26 02:52:44;;;;;;;4.82;4.28;;;;;;;14.27;91.34;95116.38;5069338;28;20709;-62
2023/05/26 02:55:11;;;;;;;4.80;4.35;;;;;;;14.25;91.13;95115.63;5070004;28;20259;-64
2023/05/26 02:57:39;;;;;;;5.15;4.75;;;;;;;14.20;91.81;95122.66;5067711;28;20638;-62
2023/05/26 03:00:07;;;;;;;5.40;5.00;;;;;;;14.25;91.81;95130.97;5066544;28;20216;-60
2023/05/26 03:02:34;;;;;;;4.68;4.28;;;;;;;14.46;91.07;95128.31;5048668;28;20204;-62
2023/05/26 03:05:00;;;;;;;4.82;4.53;;;;;;;14.53;91.15;95127.13;5062458;28;20679;-62
2023/05/26 03:07:28;;;;;;;4.55;4.28;;;;;;;14.60;90.61;95131.84;5068389;28;20690;-59
2023/05/26 03:09:55;;;;;;;5.18;4.65;;;;;;;14.65;89.93;95134.19;5067447;28;20750;-61
2023/05/26 03:12:22;;;;;;;8.02;4.10;;;;;;;14.66;90.38;95129.91;5069051;28;20233;-62
2023/05/26 03:14:49;;;;;;;8.18;3.85;;;;;;;14.73;90.00;95134.66;5069918;28;20206;-61
2023/05/26 03:17:16;;;;;;;5.32;4.93;;;;;;;14.68;90.31;95144.28;5069384;28;20793;-62
2023/05/26 03:19:43;;;;;;;4.90;4.50;;;;;;;14.75;90.23;95153.34;5069142;28;20373;-61
2023/05/26 03:22:10;;;;;;;4.80;4.40;;;;;;;14.82;90.19;95147.03;5073129;28;20205;-59
2023/05/26 03:24:38;;;;;;;4.60;4.30;;;;;;;14.93;89.67;95146.47;5068872;28;20402;-62
2023/05/26 03:27:05;;;;;;;4.45;4.15;;;;;;;14.99;89.52;95146.19;5070714;28;20288;-64
2023/05/26 03:29:33;;;;;;;4.78;4.45;;;;;;;15.01;89.25;95152.06;5071564;28;21182;-61
2023/05/26 03:32:00;;;;;;;4.75;4.43;;;;;;;15.07;88.78;95156.06;5069449;28;20706;-63
2023/05/26 03:34:26;;;;;;;7.93;5.20;;;;;;;15.08;88.50;95155.16;5070081;28;20284;-63
2023/05/26 03:36:54;;;;;;;5.38;4.88;;;;;;;15.19;87.65;95160.56;5069742;28;20367;-63
2023/05/26 03:39:21;;;;;;;6.07;5.10;;;;;;;15.19;87.68;95168.22;5069392;28;20208;-63
2023/05/26 03:41:50;;;;;;;5.85;5.40;;;;;;;15.07;87.59;95158.63;5068974;28;20225;-62
2023/05/26 03:44:18;;;;;;;6.53;5.95;;;;;;;15.05;87.39;95160.41;5068852;28;20320;-63
2023/05/26 03:46:46;;;;;;;6.78;5.72;;;;;;;15.01;87.47;95158.91;5069758;28;20220;-63
2023/05/26 03:49:13;;;;;;;6.13;5.63;;;;;;;14.98;87.67;95163.28;5069645;28;21526;-62
2023/05/26 03:51:39;;;;;;;7.03;6.43;;;;;;;14.99;87.91;95164.09;5069536;28;20316;-60
2023/05/26 03:54:06;;;;;;;8.40;7.47;;;;;;;15.02;88.15;95161.41;5067929;28;20320;-61
2023/05/26 03:56:33;;;;;;;8.25;7.57;;;;;;;15.10;87.59;95161.00;5070816;28;20300;-59
2023/05/26 03:59:02;;;;;;;8.18;7.50;;;;;;;15.21;87.24;95158.75;5068265;28;20300;-60
2023/05/26 04:01:29;;;;;;;7.93;7.32;;;;;;;15.31;86.75;95158.22;5069384;28;20212;-62
2023/05/26 04:03:56;;;;;;;8.88;7.45;;;;;;;15.41;86.40;95156.00;5071864;28;21555;-63
2023/05/26 04:06:23;;;;;;;9.45;7.82;;;;;;;15.59;85.53;95159.41;5069243;28;20297;-62
2023/05/26 04:08:50;;;;;;;15.65;11.82;;;;;;;15.84;85.49;95156.38;5071669;28;20198;-64
2023/05/26 04:11:18;;;;;;;18.02;14.75;;;;;;;16.10;83.96;95150.69;5068835;28;20287;-64
2023/05/26 04:13:45;;;;;;;11.68;10.48;;;;;;;16.16;84.02;95145.22;5070626;28;22000;-60
2023/05/26 04:16:13;;;;;;;14.52;8.98;;;;;;;16.22;83.06;95139.78;5068768;28;20205;-63
2023/05/26 04:18:40;;;;;;;8.43;7.68;;;;;;;16.24;82.57;95143.09;5066998;28;22621;-63
2023/05/26 04:21:07;;;;;;;8.23;7.50;;;;;;;16.47;82.19;95143.56;5068337;28;21191;-61
2023/05/26 04:23:34;;;;;;;8.57;6.32;;;;;;;16.96;81.51;95142.50;5072645;28;20205;-62
2023/05/26 04:26:03;;;;;;;10.15;6.03;;;;;;;17.99;79.33;95150.13;5067238;28;20209;-65
2023/05/26 04:32:00;;;;;;;22.58;17.13;;;;;;;19.07;72.35;95156.13;5075897;27;20406;-61
2023/05/26 04:34:26;;;;;;;9.65;7.85;;;;;;;19.50;70.50;95154.16;5081257;28;20578;-62
2023/05/26 04:36:53;;;;;;;9.45;6.13;;;;;;;19.58;69.77;95154.47;5081605;28;20280;-63
2023/05/26 04:39:20;;;;;;;9.73;5.25;;;;;;;19.43;70.04;95158.03;5080490;28;20336;-64
2023/05/26 04:41:46;;;;;;;10.48;5.20;;;;;;;19.23;70.19;95161.94;5079998;28;20254;-62
2023/05/26 04:44:13;;;;;;;5.47;4.97;;;;;;;19.06;71.04;95159.63;5080450;28;20327;-62
2023/05/26 04:46:40;;;;;;;6.63;5.07;;;;;;;18.96;71.59;95153.44;5080406;28;20262;-63
2023/05/26 04:49:08;;;;;;;4.78;4.38;;;;;;;19.11;70.58;95149.03;5079747;28;20288;-65
2023/05/26 04:51:35;;;;;;;20.23;13.95;;;;;;;19.00;71.11;95150.56;5078544;28;20315;-65
2023/05/26 04:54:02;;;;;;;11.63;9.65;;;;;;;19.07;70.79;95150.16;5078085;28;20213;-64
2023/05/26 04:56:29;;;;;;;7.75;5.57;;;;;;;19.07;70.77;95153.56;5078886;28;20336;-63
2023/05/26 04:58:56;;;;;;;4.85;4.45;;;;;;;19.36;69.32;95154.22;5078917;28;20328;-62
2023/05/26 05:01:22;;;;;;;5.15;4.53;;;;;;;19.62;69.20;95155.91;5081277;28;20214;-63
2023/05/26 05:03:49;;;;;;;5.88;4.50;;;;;;;19.80;68.37;95153.00;5080204;28;20285;-64
2023/05/26 05:06:17;;;;;;;4.65;4.28;;;;;;;20.06;67.66;95146.88;5080578;28;20229;-64
2023/05/26 05:08:44;;;;;;;14.13;5.45;;;;;;;20.41;65.36;95147.03;5079642;28;20760;-64
2023/05/26 05:11:12;;;;;;;4.82;4.25;;;;;;;20.67;65.04;95137.44;5080230;28;20799;-63
2023/05/26 05:13:38;;;;;;;5.10;4.07;;;;;;;21.09;64.14;95142.97;5080751;28;20604;-62
2023/05/26 05:16:05;;;;;;;4.75;4.35;;;;;;;21.41;62.83;95133.69;5079656;28;20292;-64
2023/05/26 05:18:32;;;;;;;4.88;4.47;;;;;;;21.66;62.07;95138.66;5081182;28;20292;-66
2023/05/26 05:20:59;;;;;;;5.00;4.40;;;;;;;21.49;61.87;95133.94;5082221;28;20205;-63
2023/05/26 05:23:27;;;;;;;4.90;4.47;;;;;;;21.43;62.65;95134.41;5080459;28;20289;-63
2023/05/26 05:25:54;;;;;;;4.90;4.60;;;;;;;21.68;62.88;95139.38;5082529;28;20292;-62
2023/05/26 05:28:20;;;;;;;4.97;4.68;;;;;;;21.73;63.05;95134.69;5081596;27;20284;-65
2023/05/26 05:30:47;;;;;;;5.47;5.07;;;;;;;21.96;62.07;95138.09;5081156;28;20351;-63
2023/05/26 05:33:14;;;;;;;5.60;5.20;;;;;;;22.34;61.32;95142.06;5081914;28;20315;-63
2023/05/26 05:35:40;;;;;;;5.07;4.75;;;;;;;22.87;59.78;95132.63;5081043;28;21176;-65
2023/05/26 05:38:07;;;;;;;10.07;5.50;;;;;;;23.25;58.42;95131.28;5080216;28;20227;-65
2023/05/26 05:40:35;;;;;;;9.77;5.18;;;;;;;23.60;57.83;95146.53;5082167;28;20221;-65
2023/05/26 05:43:01;;;;;;;5.60;5.20;;;;;;;23.98;57.45;95143.31;5066999;28;20300;-62
2023/05/26 05:45:28;;;;;;;7.50;5.45;;;;;;;24.35;56.41;95148.78;5068600;28;20289;-65
2023/05/26 05:47:55;;;;;;;9.45;4.50;;;;;;;25.00;54.18;95150.81;5068202;28;20744;-64
2023/05/26 05:50:21;;;;;;;4.78;4.00;;;;;;;25.92;52.65;95142.50;5067389;28;20312;-64
2023/05/26 05:52:48;;;;;;;4.57;4.18;;;;;;;27.15;50.00;95137.69;5066152;28;20280;-62
2023/05/26 05:55:15;;;;;;;3.88;3.63;;;;;;;28.38;45.87;95138.31;5067055;28;20752;-66
2023/05/26 05:57:43;;;;;;;3.72;3.42;;;;;;;28.98;43.98;95136.34;5067986;28;20293;-68
2023/05/26 06:00:11;;;;;;;7.85;3.63;;;;;;;29.56;42.07;95135.41;5067506;28;20288;-67
2023/05/26 06:02:37;;;;;;;3.42;3.10;;;;;;;30.32;39.46;95134.91;5068452;28;20581;-65
2023/05/26 06:05:05;;;;;;;3.63;3.42;;;;;;;30.80;39.07;95135.66;5067774;28;20289;-64
2023/05/26 06:07:32;;;;;;;6.28;3.88;;;;;;;31.25;37.74;95137.50;5066286;28;20206;-64
2023/05/26 06:09:59;;;;;;;3.83;3.42;;;;;;;33.10;34.49;95126.91;5067584;28;20213;-66
2023/05/26 06:12:26;;;;;;;6.88;4.10;;;;;;;35.34;31.04;95127.38;5067982;28;20292;-65
2023/05/26 06:14:54;;;;;;;4.07;3.78;;;;;;;37.18;27.95;95120.75;5067165;28;20329;-67
2023/05/26 06:17:20;;;;;;;6.00;4.45;;;;;;;38.53;26.34;95119.16;5067262;28;21341;-66
2023/05/26 06:19:47;;;;;;;6.18;5.80;;;;;;;39.97;24.25;95125.28;5067742;28;20301;-68
2023/05/26 06:22:14;;;;;;;6.07;5.47;;;;;;;41.40;22.55;95119.06;5066718;28;20725;-65
2023/05/26 06:24:40;;;;;;;8.73;4.40;;;;;;;42.49;21.72;95119.38;5066793;28;20205;-67
2023/05/26 06:27:07;;;;;;;4.93;4.65;;;;;;;43.58;20.67;95129.06;5067338;28;20208;-63
2023/05/26 06:29:34;;;;;;;7.75;4.10;;;;;;;44.15;20.13;95129.25;5067042;28;20350;-64
2023/05/26 06:32:02;;;;;;;4.80;4.50;;;;;;;44.72;19.98;95129.28;5066908;28;20315;-67
2023/05/26 06:34:29;;;;;;;4.50;4.03;;;;;;;45.23;19.23;95137.50;5067429;28;20308;-66
2023/05/26 06:36:56;;;;;;;4.68;4.22;;;;;;;45.88;18.01;95127.03;5066634;28;20363;-68
2023/05/26 06:39:23;;;;;;;5.78;3.65;;;;;;;45.69;17.87;95132.19;5066780;28;20343;-67
2023/05/26 06:41:50;;;;;;;4.78;3.58;;;;;;;44.99;18.66;95126.44;5066574;28;20321;-66
2023/05/26 06:44:16;;;;;;;5.45;3.78;;;;;;;44.82;19.18;95128.53;5066053;28;20774;-66
2023/05/26 06:46:44;;;;;;;4.47;3.80;;;;;;;44.75;19.07;95133.31;5065986;28;20290;-67
2023/05/26 06:49:12;;;;;;;3.95;3.65;;;;;;;45.42;18.44;95124.38;5066560;28;22288;-67
2023/05/26 06:51:38;;;;;;;8.35;4.25;;;;;;;45.62;18.46;95135.13;5066945;28;20316;-67
2023/05/26 06:54:05;;;;;;;8.13;6.45;;;;;;;45.23;18.15;95125.97;5066201;28;20308;-64
2023/05/26 06:56:32;;;;;;;5.88;4.60;;;;;;;45.40;18.09;95118.47;5066379;28;20293;-68
2023/05/26 06:58:59;;;;;;;5.57;3.38;;;;;;;46.71;17.97;95116.66;5067020;28;20300;-66
2023/05/26 07:01:26;;;;;;;5.43;3.85;;;;;;;47.16;17.26;95117.50;5064835;28;20742;-67
2023/05/26 07:03:52;;;;;;;5.03;3.50;;;;;;;46.92;17.31;95123.53;5064216;28;20757;-68
2023/05/26 07:06:20;;;;;;;5.35;3.55;;;;;;;46.97;17.12;95115.44;5064853;28;22478;-67
2023/05/26 07:08:47;;;;;;;3.88;3.67;;;;;;;47.46;16.96;95113.81;5063411;28;20358;-67
2023/05/26 07:11:14;;;;;;;7.93;4.00;;;;;;;47.61;16.40;95108.28;5065426;28;21074;-64
2023/05/26 07:13:40;;;;;;;3.92;3.58;;;;;;;48.18;15.92;95104.00;5065790;28;20332;-65
2023/05/26 07:16:07;;;;;;;12.30;7.18;;;;;;;47.95;16.25;95108.28;5064950;28;20300;-68
2023/05/26 07:18:34;;;;;;;4.88;4.55;;;;;;;47.87;16.00;95107.00;5066073;28;20691;-64
2023/05/26 07:21:00;;;;;;;7.45;6.72;;;;;;;48.21;16.23;95106.94;5067504;28;20300;-66
2023/05/26 07:23:28;;;;;;;9.38;4.55;;;;;;;48.38;15.88;95118.06;5067627;28;20285;-67
2023/05/26 07:25:56;;;;;;;4.10;3.75;;;;;;;48.79;15.98;95112.16;5066164;28;20296;-67
2023/05/26 07:28:23;;;;;;;4.38;4.00;;;;;;;48.10;16.51;95120.78;5065479;28;20310;-63
2023/05/26 07:30:49;;;;;;;10.32;5.55;;;;;;;47.78;16.93;95115.97;5066143;28;20324;-66
2023/05/26 07:33:16;;;;;;;3.90;3.58;;;;;;;48.62;15.98;95122.66;5065084;28;20287;-61
2023/05/26 07:35:43;;;;;;;5.30;4.90;;;;;;;48.01;16.28;95117.91;5066242;28;20324;-69
2023/05/26 07:38:09;;;;;;;6.28;3.78;;;;;;;48.75;15.34;95105.78;5065116;28;20255;-65
2023/05/26 07:40:39;;;;;;;8.73;3.78;;;;;;;48.68;15.90;95102.63;5065155;28;20663;-68
2023/05/26 07:43:05;;;;;;;6.85;3.42;;;;;;;47.21;16.75;95110.19;5065990;28;20213;-63
2023/05/26 07:45:32;;;;;;;4.13;3.83;;;;;;;46.18;17.32;95105.53;5065620;28;20395;-65
2023/05/26 07:47:59;;;;;;;3.88;3.60;;;;;;;46.49;16.88;95108.13;5065754;28;20292;-68
2023/05/26 07:50:25;;;;;;;4.78;3.78;;;;;;;46.36;17.50;95107.63;5065378;28;20316;-63
2023/05/26 07:52:52;;;;;;;10.65;3.90;;;;;;;46.78;16.77;95106.38;5064960;28;20202;-69
2023/05/26 07:55:19;;;;;;;3.75;3.45;;;;;;;44.93;18.44;95108.72;5066189;28;20226;-63
2023/05/26 07:57:47;;;;;;;3.83;3.50;;;;;;;44.16;19.08;95105.97;5065395;28;20752;-68
2023/05/26 08:00:14;;;;;;;3.85;3.53;;;;;;;43.36;20.13;95097.06;5065052;28;21454;-64
2023/05/26 08:02:42;;;;;;;8.90;4.40;;;;;;;43.89;19.54;95098.00;5066107;28;20653;-70
2023/05/26 08:05:09;;;;;;;5.00;4.63;;;;;;;45.56;18.42;95098.59;5065547;28;20345;-66
2023/05/26 08:07:35;;;;;;;7.60;4.90;;;;;;;46.72;17.71;95088.69;5064315;28;21985;-68
2023/05/26 08:10:03;;;;;;;5.20;4.20;;;;;;;48.03;16.61;95096.84;5066194;28;20772;-68
2023/05/26 08:12:30;;;;;;;5.68;5.07;;;;;;;48.91;15.67;95092.88;5064921;28;20287;-65
2023/05/26 08:14:58;;;;;;;4.50;4.07;;;;;;;49.16;15.60;95083.59;5065212;28;20293;-64
2023/05/26 08:17:25;;;;;;;5.15;4.78;;;;;;;49.52;15.82;95091.94;5064976;28;20757;-63
2023/05/26 08:19:51;;;;;;;9.32;6.50;;;;;;;48.48;16.27;95095.56;5066618;28;20296;-66
2023/05/26 08:22:18;;;;;;;8.73;6.13;;;;;;;47.26;16.41;95085.13;5064381;28;20320;-69
2023/05/26 08:24:45;;;;;;;9.43;5.10;;;;;;;43.82;19.62;95087.50;5065868;28;20292;-65
2023/05/26 08:27:11;;;;;;;6.85;6.07;;;;;;;42.46;21.09;95093.16;5064127;28;20271;-66
2023/05/26 08:29:38;;;;;;;7.57;6.00;;;;;;;42.28;21.80;95085.44;5065060;28;20288;-67
2023/05/26 08:32:06;;;;;;;6.70;6.18;;;;;;;43.97;20.18;95089.50;5065017;28;20225;-68
2023/05/26 08:34:33;;;;;;;6.07;5.32;;;;;;;44.83;19.63;95076.50;5063523;28;20296;-70
2023/05/26 08:37:00;;;;;;;10.57;9.63;;;;;;;45.77;18.02;95069.06;5055550;28;21504;-66
2023/05/26 08:39:27;;;;;;;6.60;6.20;;;;;;;46.58;17.49;95058.06;5036011;28;21586;-67
2023/05/26 08:41:58;;;;;;;7.18;5.60;;;;;;;47.74;17.29;95059.97;5038715;28;20410;-66
2023/05/26 08:44:26;;;;;;;9.00;5.32;;;;;;;46.62;16.79;95064.50;5039936;28;20288;-63
2023/05/26 08:46:55;;;;;;;6.18;5.68;;;;;;;45.22;17.96;95070.69;5039318;28;20655;-65
2023/05/26 08:49:24;;;;;;;11.25;4.93;;;;;;;45.16;18.57;95074.41;5038890;28;20300;-65
2023/05/26 08:51:59;;;;;;;10.00;5.93;;;;;;;43.97;19.38;95073.44;5061238;28;21125;-64
2023/05/26 08:54:25;;;;;;;5.47;5.13;;;;;;;42.66;21.31;95073.88;5064155;28;20722;-63
2023/05/26 08:56:52;;;;;;;5.32;4.43;;;;;;;40.62;22.60;95079.75;5064727;28;20296;-63
2023/05/26 08:59:20;;;;;;;5.72;4.80;;;;;;;39.29;23.51;95081.34;5063229;28;20296;-63
2023/05/26 09:01:46;;;;;;;6.22;4.38;;;;;;;40.11;23.48;95073.41;5062775;28;20801;-63
2023/05/26 09:04:13;;;;;;;5.35;4.68;;;;;;;42.16;21.17;95072.19;5061728;28;20293;-64
2023/05/26 09:06:45;;;;;;;5.75;5.20;;;;;;;42.90;20.17;95069.88;5061140;28;20748;-62
2023/05/26 09:09:13;;;;;;;11.25;5.20;;;;;;;42.73;20.60;95063.81;5060547;28;20312;-63
2023/05/26 09:11:41;;;;;;;10.32;4.47;;;;;;;42.88;20.40;95055.94;5063579;28;20200;-63
2023/05/26 09:14:08;;;;;;;6.38;4.65;;;;;;;40.98;22.51;95055.41;5062614;28;20264;-63
2023/05/26 09:16:35;;;;;;;4.75;4.13;;;;;;;41.98;22.17;95056.44;5060340;28;20611;-63
2023/05/26 09:19:02;;;;;;;4.93;4.63;;;;;;;39.83;22.48;95060.81;5067249;28;20317;-63
2023/05/26 09:21:31;;;;;;;4.93;4.47;;;;;;;36.92;26.09;95060.00;5067245;28;20395;-63
2023/05/26 09:24:01;;;;;;;5.82;5.20;;;;;;;33.89;31.38;95071.41;5067479;28;20210;-63
2023/05/26 09:26:29;;;;;;;6.78;4.63;;;;;;;31.92;35.40;95084.19;5067495;28;20209;-62
2023/05/26 09:28:56;;;;;;;9.25;5.07;;;;;;;30.41;38.90;95088.47;5067296;28;21963;-63
2023/05/26 09:31:24;;;;;;;10.68;4.47;;;;;;;29.84;41.17;95093.09;5067288;28;20261;-65
2023/05/26 09:33:50;;;;;;;12.38;5.93;;;;;;;29.10;44.25;95095.81;5066801;27;20305;-64
2023/05/26 09:36:17;;;;;;;6.45;5.40;;;;;;;27.92;46.72;95105.59;5067901;28;20293;-64
2023/05/26 09:38:45;;;;;;;7.82;5.72;;;;;;;26.89;49.53;95101.91;5067544;28;20296;-64
2023/05/26 09:41:13;;;;;;;7.57;6.30;;;;;;;26.28;51.39;95102.53;5066535;28;20439;-64
2023/05/26 09:43:40;;;;;;;6.93;6.30;;;;;;;25.99;53.17;95094.06;5067352;28;20284;-62
2023/05/26 09:46:08;;;;;;;6.63;6.15;;;;;;;25.52;53.46;95078.47;5069042;28;20353;-62
2023/05/26 09:48:36;;;;;;;8.15;6.50;;;;;;;25.30;54.76;95084.81;5066144;28;20202;-62
2023/05/26 09:51:02;;;;;;;6.32;5.85;;;;;;;25.12;55.19;95091.69;5065072;28;20238;-61
2023/05/26 09:53:29;;;;;;;8.00;6.53;;;;;;;25.04;55.25;95096.75;5068288;28;20613;-61
2023/05/26 09:56:01;;;;;;;7.10;6.40;;;;;;;24.77;56.68;95100.84;5067332;28;20659;-62
2023/05/26 09:58:31;;;;;;;8.20;6.90;;;;;;;24.55;57.82;95106.31;5067196;28;20216;-62
2023/05/26 10:01:00;;;;;;;7.72;6.97;;;;;;;24.38;59.83;95114.75;5065262;28;20315;-63
2023/05/26 10:03:28;;;;;;;9.73;6.88;;;;;;;24.33;60.78;95114.34;5066390;28;20324;-63
2023/05/26 10:05:56;;;;;;;5.63;5.18;;;;;;;24.04;59.18;95119.41;5066534;28;20297;-63
2023/05/26 10:08:24;;;;;;;5.95;4.85;;;;;;;23.84;60.38;95113.34;5067195;28;20206;-63
2023/05/26 10:10:51;;;;;;;7.20;5.10;;;;;;;23.83;60.36;95110.88;5065525;28;20661;-62
2023/05/26 10:13:18;;;;;;;6.22;5.10;;;;;;;23.79;60.28;95109.47;5065733;28;20278;-62
2023/05/26 10:15:47;;;;;;;4.90;4.60;;;;;;;23.82;59.84;95104.84;5066774;28;20294;-62
2023/05/26 10:29:20;;;;;;;4.43;3.95;;;;;;;24.33;55.51;95098.75;5107513;27;21345;-62
2023/05/26 10:31:46;;;;;;;7.65;6.90;;;;;;;24.65;55.18;95095.94;5123514;27;20200;-63
2023/05/26 10:34:14;;;;;;;5.82;5.28;;;;;;;25.08;53.91;95090.34;5123053;27;20290;-63
2023/05/26 10:36:41;;;;;;;6.60;5.13;;;;;;;25.38;52.16;95081.53;5121855;27;20316;-63
2023/05/26 10:39:11;;;;;;;4.40;4.10;;;;;;;25.48;51.78;95081.50;5122525;27;20210;-63
2023/05/26 10:41:39;;;;;;;4.00;3.70;;;;;;;25.53;51.69;95090.50;5106811;27;20216;-65
2023/05/26 10:44:06;;;;;;;4.78;4.30;;;;;;;25.45;52.11;95085.22;5123774;27;20276;-66
2023/05/26 10:46:44;;;;;;;5.40;4.88;;;;;;;25.29;51.49;95085.78;5112251;27;20287;-63
2023/05/26 10:49:21;;;;;;;5.38;4.88;;;;;;;24.93;52.55;95091.69;5122522;27;20318;-63
2023/05/26 10:51:53;;;;;;;12.68;10.70;;;;;;;24.60;52.45;95078.16;5121650;27;20339;-65
2023/05/26 10:54:22;;;;;;;13.07;8.10;;;;;;;24.24;52.50;95079.63;5119906;27;20214;-64
2023/05/26 10:56:51;;;;;;;6.72;6.13;;;;;;;23.93;53.76;95065.00;5120249;27;20768;-63
2023/05/26 10:59:24;;;;;;;15.68;7.88;;;;;;;23.82;54.60;95071.13;5120351;27;20665;-64
2023/05/26 11:01:53;;;;;;;9.85;5.25;;;;;;;23.85;53.32;95072.63;5119958;27;20204;-64
2023/05/26 11:04:21;;;;;;;4.38;4.07;;;;;;;23.94;54.13;95072.66;5120515;27;20196;-65
2023/05/26 11:06:50;;;;;;;6.38;4.50;;;;;;;24.16;53.22;95071.63;5120008;27;20291;-64
2023/05/26 11:09:17;;;;;;;8.75;6.00;;;;;;;24.53;53.15;95079.63;5119833;27;20313;-64
2023/05/26 11:11:51;;;;;;;5.60;4.75;;;;;;;24.79;51.85;95086.88;5118952;27;20243;-64
2023/05/26 11:14:24;;;;;;;7.65;5.15;;;;;;;24.79;50.70;95079.09;5118604;27;20673;-63
2023/05/26 11:16:52;;;;;;;7.63;4.45;;;;;;;24.63;50.36;95079.66;5119627;27;20287;-63
2023/05/26 11:19:28;;;;;;;4.82;4.43;;;;;;;24.38;50.76;95084.41;5120121;27;20301;-63
2023/05/26 11:21:55;;;;;;;5.10;3.92;;;;;;;24.32;51.86;95084.13;5120755;27;22927;-65
2023/05/26 11:24:22;;;;;;;4.68;4.28;;;;;;;24.44;51.24;95085.66;5119640;27;20312;-64
2023/05/26 11:26:49;;;;;;;3.88;3.58;;;;;;;24.66;50.34;95080.19;5121005;27;20612;-67
2023/05/26 11:29:16;;;;;;;4.47;3.15;;;;;;;24.48;51.28;95074.03;5119565;27;20383;-63
2023/05/26 11:31:48;;;;;;;4.18;3.85;;;;;;;24.45;51.58;95071.72;5121767;27;20681;-63
2023/05/26 11:34:16;;;;;;;5.60;4.35;;;;;;;24.57;52.21;95069.78;5120128;27;21036;-63
2023/05/26 11:36:46;;;;;;;6.20;4.22;;;;;;;24.76;52.91;95075.00;5120434;27;20752;-64
2023/05/26 11:39:14;;;;;;;4.47;4.07;;;;;;;24.89;52.67;95072.94;5112936;27;20597;-64
2023/05/26 11:41:40;;;;;;;10.45;5.20;;;;;;;25.06;52.04;95061.03;5106760;27;20295;-63
2023/05/26 11:44:08;;;;;;;4.88;3.65;;;;;;;25.33;50.75;95068.09;5106642;27;20338;-63
2023/05/26 11:46:38;;;;;;;5.10;4.60;;;;;;;25.35;50.80;95071.41;5106961;27;20204;-64
2023/05/26 11:49:04;;;;;;;8.88;4.78;;;;;;;25.44;50.52;95070.56;5105500;27;20323;-65